sensor_id;sensor_type;location;lat;lon;timestamp;P1;durP1;ratioP1;P2;durP2;ratioP2
11008;SDS011;5557;51.670;7.788;2022-08-25T00:01:58;2.20;;;2.10;;
11008;SDS011;5557;51.670;7.788;2022-08-25T00:04:29;3.83;;;2.60;;
11008;SDS011;5557;51.670;7.788;2022-08-25T00:07:01;3.23;;;2.37;;
11008;SDS011;5557;51.670;7.788;2022-08-25T00:09:30;5.30;;;3.00;;
11008;SDS011;5557;51.670;7.788;2022-08-25T00:11:58;4.43;;;2.97;;
11008;SDS011;5557;51.670;7.788;2022-08-25T00:14:27;3.20;;;3.10;;
11008;SDS011;5557;51.670;7.788;2022-08-25T00:16:56;3.30;;;2.87;;
11008;SDS011;5557;51.670;7.788;2022-08-25T00:19:24;3.50;;;3.20;;
11008;SDS011;5557;51.670;7.788;2022-08-25T00:21:54;3.53;;;3.13;;
11008;SDS011;5557;51.670;7.788;2022-08-25T00:24:21;2.83;;;2.60;;
11008;SDS011;5557;51.670;7.788;2022-08-25T00:26:50;3.23;;;2.67;;
11008;SDS011;5557;51.670;7.788;2022-08-25T00:29:20;4.50;;;3.07;;
11008;SDS011;5557;51.670;7.788;2022-08-25T00:31:48;3.40;;;3.10;;
11008;SDS011;5557;51.670;7.788;2022-08-25T00:34:16;4.60;;;3.40;;
11008;SDS011;5557;51.670;7.788;2022-08-25T00:36:47;6.73;;;2.73;;
11008;SDS011;5557;51.670;7.788;2022-08-25T00:39:17;5.83;;;3.23;;
11008;SDS011;5557;51.670;7.788;2022-08-25T00:41:47;6.70;;;3.37;;
11008;SDS011;5557;51.670;7.788;2022-08-25T00:44:15;3.63;;;3.30;;
11008;SDS011;5557;51.670;7.788;2022-08-25T00:46:45;4.93;;;2.73;;
11008;SDS011;5557;51.670;7.788;2022-08-25T00:49:18;5.37;;;3.57;;
11008;SDS011;5557;51.670;7.788;2022-08-25T01:00:54;3.73;;;3.33;;
11008;SDS011;5557;51.670;7.788;2022-08-25T01:03:23;6.13;;;4.17;;
11008;SDS011;5557;51.670;7.788;2022-08-25T01:06:01;5.10;;;3.13;;
11008;SDS011;5557;51.670;7.788;2022-08-25T01:08:30;5.87;;;5.20;;
11008;SDS011;5557;51.670;7.788;2022-08-25T01:11:01;4.80;;;2.97;;
11008;SDS011;5557;51.670;7.788;2022-08-25T01:13:38;4.70;;;4.00;;
11008;SDS011;5557;51.670;7.788;2022-08-25T01:16:07;6.30;;;3.80;;
11008;SDS011;5557;51.670;7.788;2022-08-25T01:18:46;4.00;;;3.80;;
11008;SDS011;5557;51.670;7.788;2022-08-25T01:21:15;12.73;;;3.60;;
11008;SDS011;5557;51.670;7.788;2022-08-25T01:23:44;4.60;;;4.10;;
11008;SDS011;5557;51.670;7.788;2022-08-25T01:26:17;9.37;;;3.40;;
11008;SDS011;5557;51.670;7.788;2022-08-25T01:28:53;3.60;;;3.40;;
11008;SDS011;5557;51.670;7.788;2022-08-25T01:31:39;13.87;;;4.30;;
11008;SDS011;5557;51.670;7.788;2022-08-25T01:34:07;9.43;;;4.20;;
11008;SDS011;5557;51.670;7.788;2022-08-25T01:36:38;5.50;;;3.60;;
11008;SDS011;5557;51.670;7.788;2022-08-25T01:39:06;5.43;;;3.70;;
11008;SDS011;5557;51.670;7.788;2022-08-25T01:44:39;4.97;;;3.40;;
11008;SDS011;5557;51.670;7.788;2022-08-25T01:47:08;9.70;;;4.00;;
11008;SDS011;5557;51.670;7.788;2022-08-25T01:49:35;6.50;;;3.90;;
11008;SDS011;5557;51.670;7.788;2022-08-25T01:55:15;6.60;;;4.13;;
11008;SDS011;5557;51.670;7.788;2022-08-25T01:57:42;13.90;;;3.60;;
11008;SDS011;5557;51.670;7.788;2022-08-25T02:00:10;8.37;;;4.30;;
11008;SDS011;5557;51.670;7.788;2022-08-25T02:02:39;3.90;;;3.50;;
11008;SDS011;5557;51.670;7.788;2022-08-25T02:05:09;6.77;;;4.20;;
11008;SDS011;5557;51.670;7.788;2022-08-25T02:07:39;9.20;;;4.23;;
11008;SDS011;5557;51.670;7.788;2022-08-25T02:10:08;7.50;;;4.27;;
11008;SDS011;5557;51.670;7.788;2022-08-25T02:12:37;8.10;;;4.30;;
11008;SDS011;5557;51.670;7.788;2022-08-25T02:15:05;5.83;;;3.73;;
11008;SDS011;5557;51.670;7.788;2022-08-25T02:17:33;11.13;;;4.87;;
11008;SDS011;5557;51.670;7.788;2022-08-25T02:20:03;13.23;;;4.30;;
11008;SDS011;5557;51.670;7.788;2022-08-25T02:22:32;12.73;;;3.80;;
11008;SDS011;5557;51.670;7.788;2022-08-25T02:24:59;5.67;;;4.17;;
11008;SDS011;5557;51.670;7.788;2022-08-25T02:27:26;8.40;;;4.60;;
11008;SDS011;5557;51.670;7.788;2022-08-25T02:29:53;16.87;;;4.67;;
11008;SDS011;5557;51.670;7.788;2022-08-25T02:32:20;5.53;;;5.00;;
11008;SDS011;5557;51.670;7.788;2022-08-25T02:34:47;7.93;;;4.30;;
11008;SDS011;5557;51.670;7.788;2022-08-25T02:37:14;11.27;;;5.30;;
11008;SDS011;5557;51.670;7.788;2022-08-25T02:39:41;10.70;;;5.27;;
11008;SDS011;5557;51.670;7.788;2022-08-25T02:42:08;7.17;;;5.10;;
11008;SDS011;5557;51.670;7.788;2022-08-25T02:44:35;7.00;;;4.80;;
11008;SDS011;5557;51.670;7.788;2022-08-25T02:47:02;7.13;;;5.37;;
11008;SDS011;5557;51.670;7.788;2022-08-25T02:49:29;5.43;;;3.83;;
11008;SDS011;5557;51.670;7.788;2022-08-25T02:51:57;6.30;;;4.77;;
11008;SDS011;5557;51.670;7.788;2022-08-25T02:54:26;10.30;;;5.07;;
11008;SDS011;5557;51.670;7.788;2022-08-25T02:56:53;6.17;;;5.00;;
11008;SDS011;5557;51.670;7.788;2022-08-25T02:59:20;5.23;;;4.73;;
11008;SDS011;5557;51.670;7.788;2022-08-25T03:01:47;8.57;;;5.30;;
11008;SDS011;5557;51.670;7.788;2022-08-25T03:04:15;6.73;;;4.77;;
11008;SDS011;5557;51.670;7.788;2022-08-25T03:06:42;3.90;;;3.70;;
11008;SDS011;5557;51.670;7.788;2022-08-25T03:09:09;4.57;;;4.27;;
11008;SDS011;5557;51.670;7.788;2022-08-25T03:11:36;4.83;;;4.37;;
11008;SDS011;5557;51.670;7.788;2022-08-25T03:14:07;7.10;;;4.80;;
11008;SDS011;5557;51.670;7.788;2022-08-25T03:16:36;4.43;;;4.10;;
11008;SDS011;5557;51.670;7.788;2022-08-25T03:19:03;8.73;;;4.83;;
11008;SDS011;5557;51.670;7.788;2022-08-25T03:21:31;8.10;;;4.80;;
11008;SDS011;5557;51.670;7.788;2022-08-25T03:23:58;6.77;;;4.80;;
11008;SDS011;5557;51.670;7.788;2022-08-25T03:26:26;5.23;;;4.83;;
11008;SDS011;5557;51.670;7.788;2022-08-25T03:29:11;5.77;;;4.70;;
11008;SDS011;5557;51.670;7.788;2022-08-25T03:31:39;5.20;;;4.80;;
11008;SDS011;5557;51.670;7.788;2022-08-25T03:34:08;4.93;;;4.57;;
11008;SDS011;5557;51.670;7.788;2022-08-25T03:36:36;10.00;;;4.60;;
11008;SDS011;5557;51.670;7.788;2022-08-25T03:39:03;11.30;;;4.07;;
11008;SDS011;5557;51.670;7.788;2022-08-25T03:41:33;4.70;;;4.40;;
11008;SDS011;5557;51.670;7.788;2022-08-25T03:44:01;7.47;;;4.50;;
11008;SDS011;5557;51.670;7.788;2022-08-25T03:46:31;9.77;;;4.63;;
11008;SDS011;5557;51.670;7.788;2022-08-25T03:49:21;4.30;;;3.90;;
11008;SDS011;5557;51.670;7.788;2022-08-25T03:51:49;10.23;;;4.73;;
11008;SDS011;5557;51.670;7.788;2022-08-25T03:54:19;7.07;;;4.87;;
11008;SDS011;5557;51.670;7.788;2022-08-25T03:56:48;8.80;;;4.97;;
11008;SDS011;5557;51.670;7.788;2022-08-25T03:59:16;12.10;;;5.00;;
11008;SDS011;5557;51.670;7.788;2022-08-25T04:01:44;10.17;;;4.77;;
11008;SDS011;5557;51.670;7.788;2022-08-25T04:04:19;8.83;;;4.60;;
11008;SDS011;5557;51.670;7.788;2022-08-25T04:06:46;7.17;;;4.67;;
11008;SDS011;5557;51.670;7.788;2022-08-25T04:09:13;13.77;;;5.00;;
11008;SDS011;5557;51.670;7.788;2022-08-25T04:11:39;6.40;;;5.17;;
11008;SDS011;5557;51.670;7.788;2022-08-25T04:14:07;6.73;;;5.20;;
11008;SDS011;5557;51.670;7.788;2022-08-25T04:16:41;5.20;;;4.73;;
11008;SDS011;5557;51.670;7.788;2022-08-25T04:19:08;7.07;;;4.60;;
11008;SDS011;5557;51.670;7.788;2022-08-25T04:21:37;9.03;;;5.50;;
11008;SDS011;5557;51.670;7.788;2022-08-25T04:24:06;7.10;;;4.40;;
11008;SDS011;5557;51.670;7.788;2022-08-25T04:26:35;5.23;;;4.70;;
11008;SDS011;5557;51.670;7.788;2022-08-25T04:29:13;5.67;;;5.10;;
11008;SDS011;5557;51.670;7.788;2022-08-25T04:31:42;13.53;;;5.53;;
11008;SDS011;5557;51.670;7.788;2022-08-25T04:34:13;5.77;;;5.20;;
11008;SDS011;5557;51.670;7.788;2022-08-25T04:36:57;5.07;;;4.63;;
11008;SDS011;5557;51.670;7.788;2022-08-25T04:39:25;11.60;;;6.17;;
11008;SDS011;5557;51.670;7.788;2022-08-25T04:41:52;10.60;;;5.43;;
11008;SDS011;5557;51.670;7.788;2022-08-25T04:44:20;10.13;;;5.33;;
11008;SDS011;5557;51.670;7.788;2022-08-25T04:46:47;6.07;;;5.17;;
11008;SDS011;5557;51.670;7.788;2022-08-25T04:49:15;7.13;;;5.53;;
11008;SDS011;5557;51.670;7.788;2022-08-25T04:51:42;11.17;;;5.33;;
11008;SDS011;5557;51.670;7.788;2022-08-25T04:54:11;15.93;;;5.77;;
11008;SDS011;5557;51.670;7.788;2022-08-25T04:56:42;7.37;;;5.10;;
11008;SDS011;5557;51.670;7.788;2022-08-25T04:59:10;8.50;;;5.60;;
11008;SDS011;5557;51.670;7.788;2022-08-25T05:01:38;6.80;;;4.73;;
11008;SDS011;5557;51.670;7.788;2022-08-25T05:04:08;7.20;;;4.77;;
11008;SDS011;5557;51.670;7.788;2022-08-25T05:06:53;9.57;;;5.00;;
11008;SDS011;5557;51.670;7.788;2022-08-25T05:09:21;5.50;;;4.13;;
11008;SDS011;5557;51.670;7.788;2022-08-25T05:11:48;6.80;;;5.83;;
11008;SDS011;5557;51.670;7.788;2022-08-25T05:14:15;10.23;;;5.20;;
11008;SDS011;5557;51.670;7.788;2022-08-25T05:16:50;15.80;;;5.80;;
11008;SDS011;5557;51.670;7.788;2022-08-25T05:19:18;8.47;;;5.43;;
11008;SDS011;5557;51.670;7.788;2022-08-25T05:21:45;10.03;;;4.83;;
11008;SDS011;5557;51.670;7.788;2022-08-25T05:24:13;5.87;;;5.37;;
11008;SDS011;5557;51.670;7.788;2022-08-25T05:26:42;5.70;;;5.20;;
11008;SDS011;5557;51.670;7.788;2022-08-25T05:29:09;9.47;;;4.93;;
11008;SDS011;5557;51.670;7.788;2022-08-25T05:31:36;11.03;;;5.30;;
11008;SDS011;5557;51.670;7.788;2022-08-25T05:34:10;4.50;;;4.17;;
11008;SDS011;5557;51.670;7.788;2022-08-25T05:36:37;7.20;;;5.17;;
11008;SDS011;5557;51.670;7.788;2022-08-25T05:39:08;16.47;;;5.83;;
11008;SDS011;5557;51.670;7.788;2022-08-25T05:41:36;23.30;;;4.97;;
11008;SDS011;5557;51.670;7.788;2022-08-25T05:44:03;5.97;;;5.37;;
11008;SDS011;5557;51.670;7.788;2022-08-25T05:46:31;8.87;;;4.90;;
11008;SDS011;5557;51.670;7.788;2022-08-25T05:48:58;16.13;;;5.53;;
11008;SDS011;5557;51.670;7.788;2022-08-25T05:51:25;8.20;;;5.03;;
11008;SDS011;5557;51.670;7.788;2022-08-25T05:53:53;10.73;;;5.03;;
11008;SDS011;5557;51.670;7.788;2022-08-25T05:56:20;7.77;;;4.83;;
11008;SDS011;5557;51.670;7.788;2022-08-25T05:58:47;5.23;;;4.90;;
11008;SDS011;5557;51.670;7.788;2022-08-25T06:01:25;6.23;;;4.70;;
11008;SDS011;5557;51.670;7.788;2022-08-25T06:04:12;8.07;;;4.47;;
11008;SDS011;5557;51.670;7.788;2022-08-25T06:06:41;8.90;;;5.37;;
11008;SDS011;5557;51.670;7.788;2022-08-25T06:09:08;7.50;;;4.77;;
11008;SDS011;5557;51.670;7.788;2022-08-25T06:11:36;7.53;;;5.20;;
11008;SDS011;5557;51.670;7.788;2022-08-25T06:14:05;12.27;;;4.40;;
11008;SDS011;5557;51.670;7.788;2022-08-25T06:16:33;5.87;;;4.40;;
11008;SDS011;5557;51.670;7.788;2022-08-25T06:19:00;7.00;;;4.47;;
11008;SDS011;5557;51.670;7.788;2022-08-25T06:21:27;4.77;;;4.27;;
11008;SDS011;5557;51.670;7.788;2022-08-25T06:23:55;8.40;;;4.20;;
11008;SDS011;5557;51.670;7.788;2022-08-25T06:26:22;6.47;;;4.57;;
11008;SDS011;5557;51.670;7.788;2022-08-25T06:28:49;6.23;;;4.30;;
11008;SDS011;5557;51.670;7.788;2022-08-25T06:31:16;4.97;;;4.57;;
11008;SDS011;5557;51.670;7.788;2022-08-25T06:33:44;6.30;;;5.17;;
11008;SDS011;5557;51.670;7.788;2022-08-25T06:36:12;13.20;;;5.30;;
11008;SDS011;5557;51.670;7.788;2022-08-25T06:38:40;8.87;;;5.27;;
11008;SDS011;5557;51.670;7.788;2022-08-25T06:41:07;6.80;;;5.00;;
11008;SDS011;5557;51.670;7.788;2022-08-25T06:43:38;7.63;;;4.23;;
11008;SDS011;5557;51.670;7.788;2022-08-25T06:46:16;4.30;;;3.90;;
11008;SDS011;5557;51.670;7.788;2022-08-25T06:48:46;4.27;;;3.70;;
11008;SDS011;5557;51.670;7.788;2022-08-25T06:51:14;11.87;;;4.97;;
11008;SDS011;5557;51.670;7.788;2022-08-25T06:53:44;3.97;;;3.77;;
11008;SDS011;5557;51.670;7.788;2022-08-25T06:56:14;4.93;;;3.70;;
11008;SDS011;5557;51.670;7.788;2022-08-25T06:58:43;6.33;;;4.20;;
11008;SDS011;5557;51.670;7.788;2022-08-25T07:01:15;6.53;;;4.50;;
11008;SDS011;5557;51.670;7.788;2022-08-25T07:03:46;5.33;;;4.83;;
11008;SDS011;5557;51.670;7.788;2022-08-25T07:06:14;4.23;;;3.63;;
11008;SDS011;5557;51.670;7.788;2022-08-25T07:08:44;5.40;;;3.87;;
11008;SDS011;5557;51.670;7.788;2022-08-25T07:11:12;4.90;;;4.50;;
11008;SDS011;5557;51.670;7.788;2022-08-25T07:13:43;5.47;;;3.60;;
11008;SDS011;5557;51.670;7.788;2022-08-25T07:16:11;4.43;;;3.60;;
11008;SDS011;5557;51.670;7.788;2022-08-25T07:18:41;5.73;;;3.97;;
11008;SDS011;5557;51.670;7.788;2022-08-25T07:21:09;4.10;;;3.67;;
11008;SDS011;5557;51.670;7.788;2022-08-25T07:23:38;8.27;;;3.63;;
11008;SDS011;5557;51.670;7.788;2022-08-25T07:26:06;15.40;;;4.20;;
11008;SDS011;5557;51.670;7.788;2022-08-25T07:28:57;12.63;;;3.87;;
11008;SDS011;5557;51.670;7.788;2022-08-25T07:31:25;7.50;;;4.67;;
11008;SDS011;5557;51.670;7.788;2022-08-25T07:33:55;11.00;;;3.67;;
11008;SDS011;5557;51.670;7.788;2022-08-25T07:36:43;5.30;;;3.83;;
11008;SDS011;5557;51.670;7.788;2022-08-25T07:39:12;5.43;;;4.40;;
11008;SDS011;5557;51.670;7.788;2022-08-25T07:41:39;3.65;;;3.40;;
11008;SDS011;5557;51.670;7.788;2022-08-25T07:44:08;4.35;;;4.07;;
11008;SDS011;5557;51.670;7.788;2022-08-25T07:46:36;7.05;;;4.18;;
11008;SDS011;5557;51.670;7.788;2022-08-25T07:49:04;9.45;;;4.10;;
11008;SDS011;5557;51.670;7.788;2022-08-25T07:51:42;4.40;;;4.00;;
11008;SDS011;5557;51.670;7.788;2022-08-25T07:54:30;4.38;;;4.07;;
11008;SDS011;5557;51.670;7.788;2022-08-25T07:57:00;4.63;;;4.15;;
11008;SDS011;5557;51.670;7.788;2022-08-25T07:59:28;5.07;;;3.95;;
11008;SDS011;5557;51.670;7.788;2022-08-25T08:02:05;8.57;;;5.22;;
11008;SDS011;5557;51.670;7.788;2022-08-25T08:04:45;5.75;;;3.55;;
11008;SDS011;5557;51.670;7.788;2022-08-25T08:07:23;9.88;;;4.15;;
11008;SDS011;5557;51.670;7.788;2022-08-25T08:10:10;12.10;;;3.80;;
11008;SDS011;5557;51.670;7.788;2022-08-25T08:12:58;4.78;;;3.88;;
11008;SDS011;5557;51.670;7.788;2022-08-25T08:15:26;4.97;;;4.10;;
11008;SDS011;5557;51.670;7.788;2022-08-25T08:17:55;5.03;;;4.60;;
11008;SDS011;5557;51.670;7.788;2022-08-25T08:20:23;4.55;;;4.15;;
11008;SDS011;5557;51.670;7.788;2022-08-25T08:22:50;4.85;;;4.40;;
11008;SDS011;5557;51.670;7.788;2022-08-25T08:25:17;4.93;;;4.53;;
11008;SDS011;5557;51.670;7.788;2022-08-25T08:27:52;4.63;;;4.20;;
11008;SDS011;5557;51.670;7.788;2022-08-25T08:30:20;12.50;;;4.30;;
11008;SDS011;5557;51.670;7.788;2022-08-25T08:32:51;5.90;;;4.80;;
11008;SDS011;5557;51.670;7.788;2022-08-25T08:35:35;5.13;;;4.70;;
11008;SDS011;5557;51.670;7.788;2022-08-25T08:38:02;6.70;;;3.95;;
11008;SDS011;5557;51.670;7.788;2022-08-25T08:48:09;4.18;;;3.97;;
11008;SDS011;5557;51.670;7.788;2022-08-25T08:50:44;16.85;;;4.30;;
11008;SDS011;5557;51.670;7.788;2022-08-25T08:53:39;5.45;;;3.97;;
11008;SDS011;5557;51.670;7.788;2022-08-25T08:59:17;4.75;;;4.35;;
11008;SDS011;5557;51.670;7.788;2022-08-25T09:01:48;4.13;;;3.88;;
11008;SDS011;5557;51.670;7.788;2022-08-25T09:04:26;6.03;;;4.32;;
11008;SDS011;5557;51.670;7.788;2022-08-25T09:07:02;4.03;;;3.83;;
11008;SDS011;5557;51.670;7.788;2022-08-25T09:09:36;4.53;;;4.15;;
11008;SDS011;5557;51.670;7.788;2022-08-25T09:12:20;3.60;;;3.20;;
11008;SDS011;5557;51.670;7.788;2022-08-25T09:15:19;4.38;;;3.97;;
11008;SDS011;5557;51.670;7.788;2022-08-25T09:22:56;3.78;;;3.33;;
11008;SDS011;5557;51.670;7.788;2022-08-25T09:25:27;4.85;;;3.38;;
11008;SDS011;5557;51.670;7.788;2022-08-25T09:28:25;11.20;;;3.53;;
11008;SDS011;5557;51.670;7.788;2022-08-25T09:34:20;3.88;;;3.50;;
11008;SDS011;5557;51.670;7.788;2022-08-25T09:36:50;3.40;;;3.10;;
11008;SDS011;5557;51.670;7.788;2022-08-25T09:39:19;6.68;;;3.65;;
11008;SDS011;5557;51.670;7.788;2022-08-25T09:41:53;13.73;;;2.83;;
11008;SDS011;5557;51.670;7.788;2022-08-25T09:44:36;3.70;;;3.22;;
11008;SDS011;5557;51.670;7.788;2022-08-25T09:47:14;2.88;;;2.47;;
11008;SDS011;5557;51.670;7.788;2022-08-25T09:49:49;4.05;;;3.10;;
11008;SDS011;5557;51.670;7.788;2022-08-25T09:57:44;3.22;;;3.00;;
11008;SDS011;5557;51.670;7.788;2022-08-25T10:00:19;4.63;;;2.58;;
11008;SDS011;5557;51.670;7.788;2022-08-25T10:06:06;5.32;;;2.72;;
11008;SDS011;5557;51.670;7.788;2022-08-25T10:11:37;6.03;;;3.22;;
11008;SDS011;5557;51.670;7.788;2022-08-25T10:14:25;3.40;;;2.50;;
11008;SDS011;5557;51.670;7.788;2022-08-25T10:17:18;2.67;;;2.10;;
11008;SDS011;5557;51.670;7.788;2022-08-25T10:23:10;2.40;;;2.20;;
11008;SDS011;5557;51.670;7.788;2022-08-25T10:25:40;2.85;;;2.65;;
11008;SDS011;5557;51.670;7.788;2022-08-25T10:28:31;2.38;;;2.28;;
11008;SDS011;5557;51.670;7.788;2022-08-25T10:31:30;2.83;;;2.63;;
11008;SDS011;5557;51.670;7.788;2022-08-25T10:34:11;6.13;;;2.40;;
11008;SDS011;5557;51.670;7.788;2022-08-25T10:37:03;7.32;;;3.50;;
11008;SDS011;5557;51.670;7.788;2022-08-25T10:39:41;9.20;;;3.20;;
11008;SDS011;5557;51.670;7.788;2022-08-25T10:45:19;3.10;;;2.90;;
11008;SDS011;5557;51.670;7.788;2022-08-25T10:49:10;2.92;;;2.83;;
11008;SDS011;5557;51.670;7.788;2022-08-25T10:57:26;4.47;;;3.40;;
11008;SDS011;5557;51.670;7.788;2022-08-25T11:00:00;3.67;;;2.83;;
11008;SDS011;5557;51.670;7.788;2022-08-25T11:02:45;6.55;;;3.10;;
11008;SDS011;5557;51.670;7.788;2022-08-25T11:05:59;3.38;;;3.15;;
11008;SDS011;5557;51.670;7.788;2022-08-25T11:08:35;11.20;;;2.83;;
11008;SDS011;5557;51.670;7.788;2022-08-25T11:11:08;4.13;;;3.03;;
11008;SDS011;5557;51.670;7.788;2022-08-25T11:13:47;2.70;;;2.58;;
11008;SDS011;5557;51.670;7.788;2022-08-25T11:16:44;3.95;;;3.20;;
11008;SDS011;5557;51.670;7.788;2022-08-25T11:19:43;3.22;;;3.13;;
11008;SDS011;5557;51.670;7.788;2022-08-25T11:25:13;2.63;;;2.53;;
11008;SDS011;5557;51.670;7.788;2022-08-25T11:30:51;4.90;;;2.92;;
11008;SDS011;5557;51.670;7.788;2022-08-25T11:33:21;4.25;;;3.08;;
11008;SDS011;5557;51.670;7.788;2022-08-25T11:35:54;3.38;;;2.60;;
11008;SDS011;5557;51.670;7.788;2022-08-25T11:42:04;4.22;;;3.75;;
11008;SDS011;5557;51.670;7.788;2022-08-25T11:45:53;2.85;;;2.75;;
11008;SDS011;5557;51.670;7.788;2022-08-25T11:51:29;4.00;;;3.60;;
11008;SDS011;5557;51.670;7.788;2022-08-25T11:54:24;3.65;;;3.45;;
11008;SDS011;5557;51.670;7.788;2022-08-25T11:57:01;3.60;;;3.30;;
11008;SDS011;5557;51.670;7.788;2022-08-25T12:03:13;4.00;;;2.88;;
11008;SDS011;5557;51.670;7.788;2022-08-25T12:06:30;4.05;;;3.17;;
11008;SDS011;5557;51.670;7.788;2022-08-25T12:11:50;3.50;;;3.20;;
11008;SDS011;5557;51.670;7.788;2022-08-25T12:17:21;6.07;;;3.08;;
11008;SDS011;5557;51.670;7.788;2022-08-25T12:19:51;3.85;;;2.90;;
11008;SDS011;5557;51.670;7.788;2022-08-25T12:25:19;3.50;;;3.17;;
11008;SDS011;5557;51.670;7.788;2022-08-25T12:38:06;5.30;;;3.45;;
11008;SDS011;5557;51.670;7.788;2022-08-25T12:43:29;3.45;;;3.08;;
11008;SDS011;5557;51.670;7.788;2022-08-25T12:49:32;3.97;;;3.67;;
11008;SDS011;5557;51.670;7.788;2022-08-25T12:52:06;4.35;;;3.55;;
11008;SDS011;5557;51.670;7.788;2022-08-25T12:54:59;4.13;;;3.92;;
11008;SDS011;5557;51.670;7.788;2022-08-25T12:57:41;4.10;;;3.90;;
11008;SDS011;5557;51.670;7.788;2022-08-25T13:00:20;3.70;;;3.55;;
11008;SDS011;5557;51.670;7.788;2022-08-25T13:10:16;3.10;;;2.90;;
11008;SDS011;5557;51.670;7.788;2022-08-25T13:12:24;3.88;;;3.33;;
11008;SDS011;5557;51.670;7.788;2022-08-25T13:15:15;3.90;;;3.17;;
11008;SDS011;5557;51.670;7.788;2022-08-25T13:18:22;3.22;;;3.10;;
11008;SDS011;5557;51.670;7.788;2022-08-25T13:20:53;4.65;;;4.25;;
11008;SDS011;5557;51.670;7.788;2022-08-25T13:23:46;3.47;;;3.17;;
11008;SDS011;5557;51.670;7.788;2022-08-25T13:26:23;3.63;;;3.28;;
11008;SDS011;5557;51.670;7.788;2022-08-25T13:28:56;7.63;;;3.40;;
11008;SDS011;5557;51.670;7.788;2022-08-25T13:31:38;7.25;;;3.45;;
11008;SDS011;5557;51.670;7.788;2022-08-25T13:34:24;4.32;;;3.20;;
11008;SDS011;5557;51.670;7.788;2022-08-25T13:37:14;4.63;;;3.70;;
11008;SDS011;5557;51.670;7.788;2022-08-25T13:43:05;4.22;;;3.60;;
11008;SDS011;5557;51.670;7.788;2022-08-25T13:45:39;4.05;;;3.53;;
11008;SDS011;5557;51.670;7.788;2022-08-25T13:48:09;3.63;;;3.30;;
11008;SDS011;5557;51.670;7.788;2022-08-25T13:50:47;6.82;;;3.38;;
11008;SDS011;5557;51.670;7.788;2022-08-25T13:53:21;3.13;;;2.88;;
11008;SDS011;5557;51.670;7.788;2022-08-25T13:55:57;9.05;;;3.60;;
11008;SDS011;5557;51.670;7.788;2022-08-25T13:58:27;3.70;;;3.50;;
11008;SDS011;5557;51.670;7.788;2022-08-25T14:04:22;4.50;;;2.67;;
11008;SDS011;5557;51.670;7.788;2022-08-25T14:09:37;7.13;;;2.83;;
11008;SDS011;5557;51.670;7.788;2022-08-25T14:15:34;3.95;;;3.47;;
11008;SDS011;5557;51.670;7.788;2022-08-25T14:18:05;4.00;;;3.47;;
11008;SDS011;5557;51.670;7.788;2022-08-25T14:20:45;4.60;;;3.17;;
11008;SDS011;5557;51.670;7.788;2022-08-25T14:23:22;3.22;;;2.95;;
11008;SDS011;5557;51.670;7.788;2022-08-25T14:25:55;5.68;;;3.78;;
11008;SDS011;5557;51.670;7.788;2022-08-25T14:28:25;4.13;;;3.88;;
11008;SDS011;5557;51.670;7.788;2022-08-25T14:30:55;4.15;;;3.95;;
11008;SDS011;5557;51.670;7.788;2022-08-25T14:33:30;4.03;;;3.72;;
11008;SDS011;5557;51.670;7.788;2022-08-25T14:36:01;9.95;;;3.70;;
11008;SDS011;5557;51.670;7.788;2022-08-25T14:38:30;5.93;;;3.83;;
11008;SDS011;5557;51.670;7.788;2022-08-25T14:40:58;7.55;;;3.90;;
11008;SDS011;5557;51.670;7.788;2022-08-25T14:43:26;4.28;;;4.03;;
11008;SDS011;5557;51.670;7.788;2022-08-25T14:45:57;3.93;;;3.73;;
11008;SDS011;5557;51.670;7.788;2022-08-25T14:48:41;5.47;;;3.70;;
11008;SDS011;5557;51.670;7.788;2022-08-25T14:51:11;10.23;;;4.00;;
11008;SDS011;5557;51.670;7.788;2022-08-25T14:53:40;4.10;;;3.90;;
11008;SDS011;5557;51.670;7.788;2022-08-25T14:56:08;5.83;;;4.00;;
11008;SDS011;5557;51.670;7.788;2022-08-25T14:58:35;6.03;;;3.60;;
11008;SDS011;5557;51.670;7.788;2022-08-25T15:01:16;5.00;;;3.70;;
11008;SDS011;5557;51.670;7.788;2022-08-25T15:03:56;4.67;;;4.20;;
11008;SDS011;5557;51.670;7.788;2022-08-25T15:06:45;4.40;;;4.10;;
11008;SDS011;5557;51.670;7.788;2022-08-25T15:09:20;6.63;;;4.20;;
11008;SDS011;5557;51.670;7.788;2022-08-25T15:11:49;4.10;;;3.80;;
11008;SDS011;5557;51.670;7.788;2022-08-25T15:14:20;3.80;;;3.70;;
11008;SDS011;5557;51.670;7.788;2022-08-25T15:16:54;4.17;;;3.90;;
11008;SDS011;5557;51.670;7.788;2022-08-25T15:19:23;7.27;;;4.30;;
11008;SDS011;5557;51.670;7.788;2022-08-25T15:21:53;4.70;;;3.87;;
11008;SDS011;5557;51.670;7.788;2022-08-25T15:24:24;12.70;;;4.17;;
11008;SDS011;5557;51.670;7.788;2022-08-25T15:26:56;4.67;;;3.93;;
11008;SDS011;5557;51.670;7.788;2022-08-25T15:29:27;4.67;;;3.80;;
11008;SDS011;5557;51.670;7.788;2022-08-25T15:31:55;4.50;;;4.10;;
11008;SDS011;5557;51.670;7.788;2022-08-25T15:34:24;3.63;;;3.43;;
11008;SDS011;5557;51.670;7.788;2022-08-25T15:36:51;4.67;;;4.27;;
11008;SDS011;5557;51.670;7.788;2022-08-25T15:39:19;10.80;;;3.90;;
11008;SDS011;5557;51.670;7.788;2022-08-25T15:41:46;5.57;;;4.13;;
11008;SDS011;5557;51.670;7.788;2022-08-25T15:44:23;4.10;;;3.80;;
11008;SDS011;5557;51.670;7.788;2022-08-25T15:46:55;3.90;;;3.70;;
11008;SDS011;5557;51.670;7.788;2022-08-25T15:49:23;6.87;;;3.87;;
11008;SDS011;5557;51.670;7.788;2022-08-25T15:51:55;3.60;;;3.40;;
11008;SDS011;5557;51.670;7.788;2022-08-25T15:54:23;4.30;;;3.90;;
11008;SDS011;5557;51.670;7.788;2022-08-25T15:56:52;7.60;;;4.50;;
11008;SDS011;5557;51.670;7.788;2022-08-25T15:59:21;4.63;;;4.30;;
11008;SDS011;5557;51.670;7.788;2022-08-25T16:01:50;4.13;;;3.83;;
11008;SDS011;5557;51.670;7.788;2022-08-25T16:04:19;3.97;;;3.77;;
11008;SDS011;5557;51.670;7.788;2022-08-25T16:06:50;5.23;;;4.80;;
11008;SDS011;5557;51.670;7.788;2022-08-25T16:09:18;4.23;;;3.90;;
11008;SDS011;5557;51.670;7.788;2022-08-25T16:11:48;4.50;;;3.93;;
11008;SDS011;5557;51.670;7.788;2022-08-25T16:14:23;5.57;;;4.03;;
11008;SDS011;5557;51.670;7.788;2022-08-25T16:16:51;5.47;;;4.47;;
11008;SDS011;5557;51.670;7.788;2022-08-25T16:19:23;4.50;;;4.20;;
11008;SDS011;5557;51.670;7.788;2022-08-25T16:21:51;4.30;;;3.90;;
11008;SDS011;5557;51.670;7.788;2022-08-25T16:24:18;3.90;;;3.70;;
11008;SDS011;5557;51.670;7.788;2022-08-25T16:26:46;5.03;;;4.00;;
11008;SDS011;5557;51.670;7.788;2022-08-25T16:29:13;5.13;;;4.23;;
11008;SDS011;5557;51.670;7.788;2022-08-25T16:31:41;6.23;;;4.07;;
11008;SDS011;5557;51.670;7.788;2022-08-25T16:34:09;7.13;;;4.00;;
11008;SDS011;5557;51.670;7.788;2022-08-25T16:36:37;9.70;;;3.80;;
11008;SDS011;5557;51.670;7.788;2022-08-25T16:39:05;3.63;;;3.40;;
11008;SDS011;5557;51.670;7.788;2022-08-25T16:41:35;4.23;;;3.30;;
11008;SDS011;5557;51.670;7.788;2022-08-25T16:44:05;4.30;;;3.77;;
11008;SDS011;5557;51.670;7.788;2022-08-25T16:46:36;6.20;;;3.63;;
11008;SDS011;5557;51.670;7.788;2022-08-25T16:49:06;4.57;;;3.60;;
11008;SDS011;5557;51.670;7.788;2022-08-25T16:51:35;14.33;;;4.10;;
11008;SDS011;5557;51.670;7.788;2022-08-25T16:54:04;4.60;;;3.87;;
11008;SDS011;5557;51.670;7.788;2022-08-25T16:56:53;4.03;;;3.70;;
11008;SDS011;5557;51.670;7.788;2022-08-25T16:59:21;7.47;;;4.40;;
11008;SDS011;5557;51.670;7.788;2022-08-25T17:01:49;4.67;;;4.07;;
11008;SDS011;5557;51.670;7.788;2022-08-25T17:04:17;3.97;;;3.67;;
11008;SDS011;5557;51.670;7.788;2022-08-25T17:06:46;3.67;;;3.47;;
11008;SDS011;5557;51.670;7.788;2022-08-25T17:09:17;9.83;;;3.50;;
11008;SDS011;5557;51.670;7.788;2022-08-25T17:11:49;4.40;;;4.00;;
11008;SDS011;5557;51.670;7.788;2022-08-25T17:14:20;4.80;;;3.60;;
11008;SDS011;5557;51.670;7.788;2022-08-25T17:16:47;5.00;;;3.80;;
11008;SDS011;5557;51.670;7.788;2022-08-25T17:19:18;4.20;;;3.90;;
11008;SDS011;5557;51.670;7.788;2022-08-25T17:21:48;4.67;;;4.27;;
11008;SDS011;5557;51.670;7.788;2022-08-25T17:24:17;4.17;;;3.90;;
11008;SDS011;5557;51.670;7.788;2022-08-25T17:26:45;3.70;;;3.60;;
11008;SDS011;5557;51.670;7.788;2022-08-25T17:29:16;5.60;;;4.23;;
11008;SDS011;5557;51.670;7.788;2022-08-25T17:31:43;6.20;;;4.17;;
11008;SDS011;5557;51.670;7.788;2022-08-25T17:34:13;4.10;;;3.77;;